首页
METAR-TAF:

METAR-TAF

机场 :

高雄國際機場

高雄, 台湾

纬度: 22-35N, 经度: 120-21E, 海拔: 9米

当前天气观测

该预报发布于41分钟前的18:00 UTC
风速8节,风向西转西北,在西转西南西北之间变化
温度 28°C
湿度 84%
气压 1008 hPa
能見度: 9000
少量云层高于1500英尺
散云层高于6000英尺
多云层高于15000英尺
附近有阵雨

METAR: RCKH 231800Z 29008KT 250V310 9000 VCSH FEW015 SCT060 BKN150 28/25 Q1008 NOSIG RMK A2979

时间: 02:41 (18:41 UTC)

预报

该预报发布于1小时和41分钟前的17:00 UTC
预报有效从23日的 18点(UTC)到 24日的 24点(UTC)
风速5节,风向西
能见度10公里或以上
少量云层高于1200英尺
多云层高于3200英尺
短暂存在
从 23日的 18点(UTC)到 23日的 24点(UTC)
能見度: 6000
少量云层高于1200英尺
多云层高于2100英尺
小雨
短暂存在
从 24日的 03点(UTC)到 24日的 09点(UTC)
风速10节,风向西转西南
能見度: 3200
散云层高于500英尺
少量云层高于1000英尺, 积雨云.
多云层高于1200英尺
阵雨
成为
从 24日的 10点(UTC)到 24日的 12点(UTC)
风速5节,风向东南
短暂存在
从 24日的 12点(UTC)到 24日的 18点(UTC)
能見度: 5000
散云层高于500英尺
多云层高于2100英尺
阵雨,

TAF: RCKH 231700Z 2318/2424 27005KT 9999 FEW012 BKN032 TEMPO 2318/2324 6000 -RA FEW012 BKN021 TEMPO 2403/2409 25010KT 3200 SHRA SCT005 FEW010CB BKN012 BECMG 2410/2412 13005KT TEMPO 2412/2418 5000 SHRA SCT005 BKN021

超过4000个机场的气象观测和天气预报(METAR&TAF报告)。

可查询的气象台以黄色和红色小点在地图上表示。

将鼠标移到小点上方,可查看气象台名称。

然后点击查看天气观测和预报。

如需切换地图:点击带黑十字的绿色按钮放大地图;点击带横线的绿色按钮缩小地图;或者点击绿色箭头查看邻近地区的地图。


METAR-TAF: